»·PEaware :: N37WJ KSBP-KSAC

N37WJ :: KSBP-KSAC

FLIGHT INFORMATION

Flight Status: Arrived
Operator: Privately registered:
United States
More flights under this callsign
Pilot: Ryan C. (15122)
Aircraft: Unknown
(EPIC)
More flights by this aircraft type
Origin: KSBP San Luis Co Regl
United States
Destination: KSAC Sacramento Executive
United States
More flights between these airports :: More routes between these airports
Route: PRB PXN LIN
File this flight plan on PilotEdge
Remarks:
Altitude:
(Current/Filed)
20,000ft
Speed:
(Current/Filed)
300kts
Departed: 19-Jul-18 07:48 PM
Arrived: 19-Jul-18 08:36 PM
Distance/Time
Traveled:
201nm/0:48
Distance/Time
To Go:
Arrived

Flight Plot

Page will automatically refresh every two minutes.

Flight plan parsing failed; only flown route is shown


Map Options




Map Legend


Flown Route
Filed Route
Departure Airport
Arrival Airport
Navaid (VOR, NDB)
Fix

Horizontal Profiles

Position Reports

Time Latitude Longitude Heading Altitude Ground
Speed
19-Jul-18 19:39 35.238043 -120.638650 268 196ft 0kts
19-Jul-18 19:40 35.238043 -120.638650 268 196ft 0kts
19-Jul-18 19:41 35.238043 -120.638650 268 196ft 0kts
19-Jul-18 19:42 35.238043 -120.638650 268 196ft 0kts
19-Jul-18 19:43 35.238043 -120.638650 268 196ft 0kts
19-Jul-18 19:44 35.238043 -120.638650 268 196ft 0kts
19-Jul-18 19:45 35.237845 -120.639062 220 194ft 0kts
19-Jul-18 19:46 35.235814 -120.636421 125 205ft 15kts
19-Jul-18 19:47 35.233294 -120.632265 181 213ft 2kts
19-Jul-18 19:48 35.233025 -120.632528 217 212ft 7kts
19-Jul-18 19:49 35.244477 -120.653511 300 955ft 142kts
19-Jul-18 19:50 35.269953 -120.695082 302 3802ft 175kts
19-Jul-18 19:51 35.301799 -120.746639 304 6973ft 206kts
19-Jul-18 19:52 35.339677 -120.809326 304 8011ft 255kts
19-Jul-18 19:53 35.387138 -120.875434 344 7994ft 269kts
19-Jul-18 19:54 35.449524 -120.835375 39 7985ft 265kts
19-Jul-18 19:55 35.507586 -120.782011 40 9728ft 257kts
19-Jul-18 19:56 35.562227 -120.730898 40 12712ft 240kts
19-Jul-18 19:57 35.613286 -120.682978 41 15591ft 232kts
19-Jul-18 19:58 35.665095 -120.635567 25 18380ft 239kts
19-Jul-18 19:59 35.733783 -120.637241 357 19947ft 272kts
19-Jul-18 20:00 35.815392 -120.647841 355 19947ft 315kts
19-Jul-18 20:01 35.904493 -120.660549 355 19945ft 329kts
19-Jul-18 20:02 35.995542 -120.673689 355 19945ft 332kts
19-Jul-18 20:03 36.086936 -120.686867 354 19949ft 333kts
19-Jul-18 20:04 36.155429 -120.696842 354 19951ft 334kts
19-Jul-18 20:05 36.246525 -120.710097 354 19949ft 335kts
19-Jul-18 20:06 36.338707 -120.723529 354 19947ft 335kts
19-Jul-18 20:07 36.431046 -120.737011 354 19890ft 337kts
19-Jul-18 20:08 36.524000 -120.750617 354 19862ft 337kts
19-Jul-18 20:09 36.616889 -120.764248 354 19878ft 337kts
19-Jul-18 20:10 36.709512 -120.777906 353 19888ft 336kts
19-Jul-18 20:11 36.802227 -120.792893 353 19895ft 336kts
19-Jul-18 20:12 36.894782 -120.807994 353 19899ft 336kts
19-Jul-18 20:13 36.988886 -120.823404 353 18918ft 344kts
19-Jul-18 20:14 37.083409 -120.838899 353 17924ft 340kts
19-Jul-18 20:15 37.157704 -120.851101 353 17123ft 336kts
19-Jul-18 20:16 37.249543 -120.866237 353 16123ft 334kts
19-Jul-18 20:17 37.340761 -120.881306 353 15129ft 334kts
19-Jul-18 20:18 37.431787 -120.896381 353 14137ft 334kts
19-Jul-18 20:19 37.522667 -120.911462 353 13145ft 332kts
19-Jul-18 20:20 37.611956 -120.926317 352 12158ft 328kts
19-Jul-18 20:21 37.701754 -120.941307 352 11158ft 325kts
19-Jul-18 20:22 37.789352 -120.955953 352 10164ft 319kts
19-Jul-18 20:23 37.875174 -120.970340 352 10005ft 307kts
19-Jul-18 20:24 37.948902 -121.018900 324 10015ft 306kts
19-Jul-18 20:25 38.018886 -121.079578 327 10030ft 306kts
19-Jul-18 20:26 38.090076 -121.139079 326 10004ft 308kts
19-Jul-18 20:27 38.155496 -121.193644 326 8854ft 284kts
19-Jul-18 20:28 38.220285 -121.247814 326 7645ft 275kts
19-Jul-18 20:29 38.283256 -121.300548 325 6333ft 265kts
19-Jul-18 20:30 38.343771 -121.351332 325 4930ft 261kts
19-Jul-18 20:31 38.404180 -121.402160 324 3533ft 262kts
19-Jul-18 20:32 38.469456 -121.427021 358 2648ft 244kts
19-Jul-18 20:33 38.530124 -121.427896 357 1963ft 168kts
19-Jul-18 20:34 38.549009 -121.454670 264 1064ft 97kts
19-Jul-18 20:35 38.532867 -121.477694 211 397ft 86kts
19-Jul-18 20:36 38.513634 -121.493692 213 20ft 60kts
19-Jul-18 20:37 38.511677 -121.497775 37 20ft 9kts
19-Jul-18 20:38 38.513767 -121.497848 302 20ft 0kts
19-Jul-18 20:39 38.513768 -121.497849 302 20ft 0kts
19-Jul-18 20:40 38.513768 -121.497849 302 20ft 0kts
19-Jul-18 20:41 38.513768 -121.497849 302 20ft 0kts
19-Jul-18 20:42 38.513768 -121.497849 302 20ft 0kts
19-Jul-18 20:43 38.513768 -121.497849 302 20ft 0kts
19-Jul-18 20:44 38.513768 -121.497849 302 20ft 0kts
19-Jul-18 20:45 38.513768 -121.497849 302 20ft 0kts
19-Jul-18 20:46 38.513768 -121.497849 302 20ft 0kts
19-Jul-18 20:47 38.513768 -121.497849 302 20ft 0kts
19-Jul-18 20:48 38.513768 -121.497849 302 20ft 0kts
19-Jul-18 20:49 38.513768 -121.497849 302 20ft 0kts
19-Jul-18 20:50 38.513768 -121.497849 302 20ft 0kts
19-Jul-18 20:51 38.513768 -121.497849 302 20ft 0kts

Navigation Log

Ident Type
Flight plan parsing failed, navigation log unavailable